This is the latest recevied weather packets stored in our database for station/object GW1545. If no packets are shown the sender has not sent any weather packets the latest 10 day(s).
| Time | Temp. | Humidity | Pressure | Rain* | Wind** | Luminosity | Snow |
|---|---|---|---|---|---|---|---|
| 1777475927 | 17.22° C | 95% | 1013.2 hPa | 1.02 mm | - | - | - |
| 1777474460 | 17.78° C | 94% | 1013.5 hPa | 0.25 mm | - | - | - |
| 1777469810 | 18.89° C | 88% | 1013.8 hPa | 0 mm | - | - | - |
| 1777469074 | 18.89° C | 86% | 1013.8 hPa | 0 mm | - | - | - |
| 1777467288 | 18.89° C | 89% | 1014.5 hPa | 0 mm | - | - | - |
| 1777466905 | 18.89° C | 89% | 1014.5 hPa | 0 mm | - | - | - |
| 1777465467 | 18.33° C | 90% | 1014.5 hPa | 0 mm | - | - | - |
| 1777464765 | 18.89° C | 89% | 1014.5 hPa | 0 mm | - | - | - |
| 1777464394 | 18.89° C | 90% | 1014.9 hPa | 0 mm | - | - | - |
| 1777462581 | 17.22° C | 95% | 1014.5 hPa | 0 mm | - | - | - |
| 1777453241 | 17.22° C | 92% | 1014.5 hPa | 0 mm | - | - | - |
| 1777452889 | 17.22° C | 92% | 1014.5 hPa | 0 mm | - | - | - |
| 1777452153 | 17.22° C | 92% | 1014.5 hPa | 0 mm | - | - | - |
| 1777448568 | 17.78° C | 90% | 1015.2 hPa | 0 mm | - | - | - |
| 1777448179 | 17.78° C | 90% | 1014.9 hPa | 0 mm | - | - | - |
| 1777445669 | 17.78° C | 89% | 1014.9 hPa | 0 mm | - | - | - |
| 1777445331 | 17.78° C | 89% | 1015.2 hPa | 0 mm | - | - | - |
| 1777443879 | 17.78° C | 89% | 1015.5 hPa | 0 mm | - | - | - |
| 1777442072 | 17.78° C | 89% | 1015.5 hPa | 0 mm | - | - | - |
| 1777441332 | 17.78° C | 89% | 1015.9 hPa | 0 mm | - | - | - |
| 1777438126 | 17.78° C | 88% | 1016.5 hPa | 0 mm | - | - | - |
| 1777436667 | 17.78° C | 88% | 1016.5 hPa | 0 mm | - | - | - |
| 1777433447 | 18.33° C | 86% | 1017.2 hPa | 14.22 mm | - | - | - |
| 1777431256 | 18.89° C | 84% | 1017.9 hPa | 14.22 mm | - | - | - |
| 1777430213 | 18.89° C | 84% | 1017.9 hPa | 14.22 mm | - | - | - |
* Rain since midnight (hover to see other rain measurements)
** Current wind speed in m/s (hover to see current wind gust speed)